Time;durP1;ratioP1;P1;durP2;ratioP2;P2;SDS_P1;SDS_P2;PMS_P1;PMS_P2;Temp;Humidity;BMP_temperature;BMP_pressure;BME280_temperature;BME280_humidity;BME280_pressure;Samples;Min_cycle;Max_cycle;Signal;HPM_P1;HPM_P2
2024/01/21 00:00:42;;;;;;;13.30;9.25;;;15.50;32.10;;;;;;5084591;28;46377;-64
2024/01/21 00:03:09;;;;;;;10.43;7.47;;;15.50;32.20;;;;;;5085131;28;45324;-65
2024/01/21 00:05:36;;;;;;;11.18;7.10;;;15.50;32.10;;;;;;5084900;28;45437;-64
2024/01/21 00:08:05;;;;;;;11.25;7.93;;;15.50;32.10;;;;;;5084973;28;45519;-64
2024/01/21 00:10:31;;;;;;;12.30;7.93;;;15.50;32.10;;;;;;5084824;28;47633;-64
2024/01/21 00:12:58;;;;;;;10.75;7.40;;;15.50;32.00;;;;;;5084843;28;45329;-64
2024/01/21 00:15:26;;;;;;;10.95;7.78;;;15.50;32.10;;;;;;5085071;28;45390;-64
2024/01/21 00:17:53;;;;;;;11.85;8.60;;;15.50;32.70;;;;;;5084952;28;45383;-64
2024/01/21 00:20:20;;;;;;;10.95;8.63;;;15.50;32.10;;;;;;5085061;27;46431;-65
2024/01/21 00:22:46;;;;;;;12.43;7.82;;;15.50;32.10;;;;;;5088327;28;45192;-64
2024/01/21 00:25:15;;;;;;;9.60;6.90;;;15.40;32.10;;;;;;5088137;28;45453;-64
2024/01/21 00:27:42;;;;;;;11.30;9.18;;;15.50;32.10;;;;;;5088385;28;45386;-64
2024/01/21 00:30:09;;;;;;;11.73;7.47;;;15.50;32.10;;;;;;5087870;28;46744;-64
2024/01/21 00:32:36;;;;;;;9.65;7.00;;;15.50;32.10;;;;;;5088060;28;45331;-64
2024/01/21 00:35:04;;;;;;;11.75;6.82;;;15.40;32.10;;;;;;5088356;28;45248;-64
2024/01/21 00:37:31;;;;;;;10.15;7.35;;;15.40;32.00;;;;;;5088114;28;45351;-64
2024/01/21 00:39:58;;;;;;;11.48;7.30;;;15.40;32.10;;;;;;5087709;28;45508;-64
2024/01/21 00:42:26;;;;;;;9.43;6.90;;;15.40;32.10;;;;;;5087974;28;45204;-65
2024/01/21 00:44:53;;;;;;;9.93;6.78;;;15.40;32.10;;;;;;5088096;28;45264;-64
2024/01/21 00:47:20;;;;;;;10.60;8.35;;;15.40;32.10;;;;;;5087959;28;45450;-64
2024/01/21 00:49:47;;;;;;;9.73;8.43;;;15.40;32.10;;;;;;5087624;28;45502;-65
2024/01/21 00:52:15;;;;;;;11.57;9.18;;;15.40;32.10;;;;;;5088005;28;45292;-64
2024/01/21 00:54:42;;;;;;;10.50;8.70;;;15.40;32.10;;;;;;5087776;28;45343;-63
2024/01/21 00:57:09;;;;;;;10.80;8.80;;;15.30;32.70;;;;;;5087894;28;45359;-64
2024/01/21 00:59:37;;;;;;;10.57;9.25;;;15.30;32.10;;;;;;5087619;28;45358;-64
2024/01/21 01:02:04;;;;;;;10.20;7.93;;;15.30;32.10;;;;;;5087983;28;45280;-64
2024/01/21 01:04:31;;;;;;;11.45;8.90;;;15.30;32.10;;;;;;5088079;28;45371;-66
2024/01/21 01:06:59;;;;;;;9.77;8.23;;;15.30;32.10;;;;;;5087602;28;45178;-64
2024/01/21 01:09:26;;;;;;;9.45;6.82;;;15.30;32.10;;;;;;5087377;28;45521;-64
2024/01/21 01:11:53;;;;;;;10.73;8.23;;;15.30;32.10;;;;;;5087726;28;45390;-64
2024/01/21 01:14:20;;;;;;;10.07;8.18;;;15.30;32.10;;;;;;5087421;28;45273;-64
2024/01/21 01:16:48;;;;;;;11.93;8.88;;;15.30;32.10;;;;;;5087662;28;45665;-64
2024/01/21 01:19:15;;;;;;;10.52;8.48;;;15.20;32.10;;;;;;5087211;28;46637;-64
2024/01/21 01:21:42;;;;;;;10.38;8.23;;;15.20;32.20;;;;;;5087171;28;45380;-64
2024/01/21 01:24:08;;;;;;;9.75;7.78;;;15.20;32.10;;;;;;5087400;28;45355;-64
2024/01/21 01:26:35;;;;;;;9.75;8.20;;;15.20;32.10;;;;;;5087811;28;45395;-64
2024/01/21 01:29:02;;;;;;;8.65;7.75;;;15.20;32.10;;;;;;5087054;28;45360;-64
2024/01/21 01:31:29;;;;;;;8.90;6.05;;;15.30;32.10;;;;;;5084086;27;45447;-64
2024/01/21 01:33:57;;;;;;;10.40;8.38;;;15.20;32.10;;;;;;5105851;27;45429;-64
2024/01/21 01:36:24;;;;;;;9.23;7.82;;;15.20;32.10;;;;;;5107890;27;45314;-64
2024/01/21 01:38:51;;;;;;;9.82;8.18;;;15.20;32.10;;;;;;5107401;27;47319;-64
2024/01/21 01:41:18;;;;;;;7.90;5.97;;;15.20;32.10;;;;;;5107197;27;45299;-63
2024/01/21 01:43:44;;;;;;;9.63;7.97;;;15.20;32.10;;;;;;5107648;27;45367;-64
2024/01/21 01:46:12;;;;;;;7.97;7.18;;;15.20;32.10;;;;;;5107838;27;45458;-64
2024/01/21 01:48:38;;;;;;;9.27;7.55;;;15.20;32.00;;;;;;5107154;27;45484;-64
2024/01/21 01:51:07;;;;;;;7.63;6.82;;;15.20;32.00;;;;;;5107190;27;45310;-64
2024/01/21 01:53:34;;;;;;;8.65;7.55;;;15.20;32.00;;;;;;5107416;27;45334;-64
2024/01/21 01:56:02;;;;;;;9.43;7.65;;;15.10;32.00;;;;;;5107964;27;45437;-64
2024/01/21 01:58:29;;;;;;;8.20;6.90;;;15.10;32.00;;;;;;5107219;27;46611;-65
2024/01/21 02:00:56;;;;;;;7.90;6.18;;;15.10;32.00;;;;;;5107279;27;45311;-64
2024/01/21 02:03:23;;;;;;;11.13;8.38;;;15.10;32.00;;;;;;5107550;27;45427;-64
2024/01/21 02:05:50;;;;;;;8.07;5.68;;;15.10;32.00;;;;;;5102954;27;45466;-66
2024/01/21 02:08:18;;;;;;;9.23;6.28;;;15.10;31.90;;;;;;5086415;28;45367;-64
2024/01/21 02:10:45;;;;;;;9.02;7.65;;;15.10;31.90;;;;;;5086415;28;45286;-65
2024/01/21 02:13:12;;;;;;;9.30;7.90;;;15.10;31.90;;;;;;5086986;28;45378;-63
2024/01/21 02:15:39;;;;;;;8.90;6.28;;;15.10;31.90;;;;;;5086868;28;45307;-65
2024/01/21 02:18:06;;;;;;;8.20;6.10;;;15.10;31.90;;;;;;5086306;28;46411;-65
2024/01/21 02:20:35;;;;;;;10.85;7.95;;;15.00;31.90;;;;;;5086372;28;45429;-65
2024/01/21 02:23:06;;;;;;;8.75;6.47;;;15.00;31.90;;;;;;5086506;28;45423;-65
2024/01/21 02:25:33;;;;;;;7.72;5.38;;;15.00;31.90;;;;;;5086778;28;45376;-65
2024/01/21 02:28:00;;;;;;;9.32;7.93;;;15.00;31.80;;;;;;5086493;28;46437;-65
2024/01/21 02:30:27;;;;;;;11.10;8.65;;;15.00;31.80;;;;;;5086072;28;45340;-66
2024/01/21 02:32:54;;;;;;;8.15;6.68;;;15.00;31.80;;;;;;5086504;28;45251;-65
2024/01/21 02:35:21;;;;;;;8.48;6.32;;;15.00;31.80;;;;;;5086492;28;45512;-66
2024/01/21 02:37:48;;;;;;;8.50;7.35;;;15.00;31.80;;;;;;5086048;28;46631;-65
2024/01/21 02:40:16;;;;;;;9.23;8.15;;;15.00;31.80;;;;;;5085674;28;45324;-65
2024/01/21 02:42:43;;;;;;;9.02;6.68;;;15.00;31.80;;;;;;5085623;28;45265;-65
2024/01/21 02:45:10;;;;;;;8.75;7.32;;;15.00;31.80;;;;;;5086474;28;45568;-64
2024/01/21 02:47:37;;;;;;;9.80;8.18;;;15.00;31.80;;;;;;5085970;28;45325;-64
2024/01/21 02:50:05;;;;;;;10.00;6.20;;;14.90;31.80;;;;;;5085978;28;45328;-65
2024/01/21 02:52:32;;;;;;;10.20;7.38;;;14.90;31.80;;;;;;5086199;28;45225;-65
2024/01/21 02:54:58;;;;;;;8.60;6.03;;;14.90;31.80;;;;;;5086338;28;45253;-65
2024/01/21 02:57:27;;;;;;;9.60;7.50;;;14.90;31.80;;;;;;5085759;28;46368;-65
2024/01/21 02:59:53;;;;;;;7.90;5.93;;;14.90;31.80;;;;;;5085855;28;45371;-65
2024/01/21 03:02:20;;;;;;;9.88;7.07;;;14.90;31.70;;;;;;5086092;28;45375;-65
2024/01/21 03:04:47;;;;;;;7.00;5.68;;;14.90;31.70;;;;;;5086179;28;45400;-65
2024/01/21 03:07:19;;;;;;;8.40;7.55;;;14.90;31.70;;;;;;5085489;28;45459;-65
2024/01/21 03:09:46;;;;;;;8.88;7.32;;;14.80;31.70;;;;;;5085889;28;45448;-64
2024/01/21 03:12:13;;;;;;;8.90;8.00;;;14.80;31.70;;;;;;5085787;28;45223;-65
2024/01/21 03:14:41;;;;;;;9.55;7.70;;;14.80;31.70;;;;;;5085729;28;45235;-65
2024/01/21 03:17:09;;;;;;;9.02;6.88;;;14.80;31.70;;;;;;5085327;28;45526;-65
2024/01/21 03:19:35;;;;;;;9.32;7.95;;;14.80;31.70;;;;;;5085459;28;45361;-65
2024/01/21 03:22:02;;;;;;;9.57;7.65;;;14.80;31.70;;;;;;5085470;28;45260;-65
2024/01/21 03:24:29;;;;;;;9.43;7.88;;;14.80;31.70;;;;;;5085720;28;45170;-65
2024/01/21 03:26:56;;;;;;;10.13;8.07;;;14.80;31.70;;;;;;5085331;28;47384;-65
2024/01/21 03:29:24;;;;;;;9.05;7.38;;;14.80;31.70;;;;;;5085058;28;45403;-65
2024/01/21 03:31:52;;;;;;;9.80;7.47;;;14.70;31.70;;;;;;5085814;28;45379;-65
2024/01/21 03:34:19;;;;;;;9.15;7.80;;;14.70;31.80;;;;;;5085578;28;45222;-65
2024/01/21 03:36:46;;;;;;;10.95;7.72;;;14.80;31.70;;;;;;5085171;28;46366;-65
2024/01/21 03:39:13;;;;;;;9.48;6.35;;;14.80;31.70;;;;;;5085171;28;45268;-65
2024/01/21 03:41:40;;;;;;;9.68;7.70;;;14.80;31.70;;;;;;5084954;28;45383;-65
2024/01/21 03:44:07;;;;;;;8.57;7.10;;;14.80;31.70;;;;;;5085623;28;45327;-65
2024/01/21 03:46:33;;;;;;;8.80;6.55;;;14.70;31.70;;;;;;5085047;28;46315;-65
2024/01/21 03:49:02;;;;;;;8.75;6.25;;;14.70;31.70;;;;;;5085097;28;45257;-65
2024/01/21 03:51:28;;;;;;;8.30;7.47;;;14.70;31.60;;;;;;5085348;28;45256;-64
2024/01/21 03:53:55;;;;;;;10.63;7.72;;;14.80;31.70;;;;;;5085799;28;45378;-64
2024/01/21 03:56:23;;;;;;;8.43;7.03;;;14.70;31.60;;;;;;5088492;28;45339;-64
2024/01/21 03:58:49;;;;;;;8.30;7.28;;;14.70;31.60;;;;;;5088591;28;45232;-64
2024/01/21 04:01:17;;;;;;;9.63;7.88;;;14.70;31.60;;;;;;5088660;28;45327;-64
2024/01/21 04:03:44;;;;;;;8.00;7.15;;;14.70;31.60;;;;;;5088986;28;45371;-64
2024/01/21 04:06:12;;;;;;;9.85;7.50;;;14.70;31.60;;;;;;5088660;28;47546;-64
2024/01/21 04:08:38;;;;;;;9.85;7.53;;;14.70;31.60;;;;;;5088403;28;45283;-64
2024/01/21 04:11:05;;;;;;;7.47;6.65;;;14.70;31.70;;;;;;5088447;28;45332;-64
2024/01/21 04:13:33;;;;;;;9.35;7.63;;;14.70;31.70;;;;;;5088758;28;45411;-64
2024/01/21 04:16:00;;;;;;;10.43;7.13;;;14.70;31.60;;;;;;5088613;28;47335;-64
2024/01/21 04:18:27;;;;;;;9.05;7.32;;;14.80;31.50;;;;;;5088821;28;45407;-64
2024/01/21 04:20:54;;;;;;;9.27;7.10;;;14.90;31.50;;;;;;5088521;28;45260;-64
2024/01/21 04:23:22;;;;;;;8.23;5.72;;;14.90;31.30;;;;;;5089107;28;45138;-65
2024/01/21 04:25:49;;;;;;;7.68;5.60;;;15.10;31.20;;;;;;5088415;28;45362;-65
2024/01/21 04:28:16;;;;;;;7.60;6.38;;;15.10;31.00;;;;;;5088306;28;45443;-64
2024/01/21 04:30:43;;;;;;;9.63;7.05;;;15.30;30.90;;;;;;5088244;28;45294;-64
2024/01/21 04:33:10;;;;;;;7.45;6.50;;;15.40;30.80;;;;;;5089174;28;45257;-64
2024/01/21 04:35:38;;;;;;;7.55;6.70;;;15.40;30.60;;;;;;5088299;28;45276;-64
2024/01/21 04:38:05;;;;;;;8.25;6.90;;;15.60;30.50;;;;;;5088410;28;45458;-64
2024/01/21 04:40:33;;;;;;;8.38;6.72;;;15.70;30.30;;;;;;5087988;28;45426;-65
2024/01/21 04:43:00;;;;;;;7.78;5.60;;;15.80;30.10;;;;;;5088633;28;45281;-64
2024/01/21 04:45:26;;;;;;;7.00;5.18;;;15.90;30.00;;;;;;5087855;28;46153;-66
2024/01/21 04:47:53;;;;;;;6.78;4.90;;;16.00;29.90;;;;;;5087953;28;45254;-64
2024/01/21 04:50:20;;;;;;;7.57;5.30;;;16.10;29.80;;;;;;5097863;27;45449;-65
2024/01/21 04:52:47;;;;;;;6.40;5.32;;;16.30;29.70;;;;;;5108886;27;45367;-65
2024/01/21 04:55:14;;;;;;;7.55;5.18;;;16.30;29.60;;;;;;5108277;27;45288;-65
2024/01/21 04:57:42;;;;;;;7.78;5.03;;;16.40;29.50;;;;;;5108180;27;45234;-65
2024/01/21 05:00:10;;;;;;;7.75;5.00;;;16.50;29.40;;;;;;5108193;27;45434;-66
2024/01/21 05:02:37;;;;;;;6.68;4.63;;;16.50;29.40;;;;;;5108598;27;45403;-65
2024/01/21 05:05:05;;;;;;;6.10;4.75;;;16.50;29.30;;;;;;5108291;27;46427;-65
2024/01/21 05:07:32;;;;;;;6.38;4.57;;;16.60;29.30;;;;;;5088947;27;45541;-65
2024/01/21 05:09:59;;;;;;;7.72;5.07;;;16.70;29.30;;;;;;5087594;28;45395;-65
2024/01/21 05:12:26;;;;;;;7.03;5.28;;;16.70;29.20;;;;;;5087826;28;45339;-65
2024/01/21 05:14:55;;;;;;;5.88;4.65;;;16.70;29.20;;;;;;5087488;28;46690;-65
2024/01/21 05:17:22;;;;;;;6.90;4.68;;;16.80;29.20;;;;;;5087525;28;45505;-65
2024/01/21 05:19:49;;;;;;;6.47;5.07;;;16.80;29.10;;;;;;5087356;28;45345;-66
2024/01/21 05:22:16;;;;;;;7.20;5.35;;;16.80;29.10;;;;;;5087853;28;45325;-65
2024/01/21 05:24:42;;;;;;;6.65;5.15;;;16.90;29.10;;;;;;5087375;28;45288;-64
2024/01/21 05:27:09;;;;;;;6.53;5.07;;;16.90;29.10;;;;;;5087335;28;45253;-64
2024/01/21 05:29:36;;;;;;;5.72;4.78;;;16.90;29.00;;;;;;5087496;28;45344;-65
2024/01/21 05:32:05;;;;;;;8.30;5.05;;;16.90;29.00;;;;;;5087732;28;45557;-64
2024/01/21 05:34:32;;;;;;;5.30;4.35;;;17.00;29.10;;;;;;5087248;28;46261;-64
2024/01/21 05:36:59;;;;;;;7.20;4.63;;;17.00;29.00;;;;;;5086984;28;45245;-65
2024/01/21 05:39:26;;;;;;;5.85;4.35;;;17.00;29.00;;;;;;5087123;28;45253;-64
2024/01/21 05:42:03;;;;;;;6.13;4.63;;;17.10;29.00;;;;;;5087184;28;45353;-64
2024/01/21 05:44:29;;;;;;;6.93;4.80;;;17.10;29.00;;;;;;5086950;28;45573;-65
2024/01/21 05:46:56;;;;;;;6.50;5.07;;;17.20;28.90;;;;;;5086948;28;45376;-65
2024/01/21 05:49:24;;;;;;;5.28;4.50;;;17.20;28.90;;;;;;5087237;28;45185;-65
2024/01/21 05:51:51;;;;;;;6.10;4.30;;;17.20;28.80;;;;;;5087319;28;45266;-64
2024/01/21 05:54:18;;;;;;;5.68;4.38;;;17.20;28.80;;;;;;5086766;28;46406;-65
2024/01/21 05:56:46;;;;;;;6.40;4.65;;;17.20;28.80;;;;;;5086889;28;45550;-65
2024/01/21 05:59:16;;;;;;;5.18;4.25;;;17.20;28.80;;;;;;5086697;28;45377;-65
2024/01/21 06:01:43;;;;;;;5.88;4.05;;;17.30;28.80;;;;;;5107246;27;45441;-65
2024/01/21 06:04:10;;;;;;;4.97;3.90;;;17.30;28.80;;;;;;5107041;27;46254;-65
2024/01/21 06:06:38;;;;;;;5.55;4.40;;;17.30;28.70;;;;;;5096389;27;45340;-65
2024/01/21 06:09:05;;;;;;;5.70;4.70;;;17.40;28.70;;;;;;5086751;28;45346;-64
2024/01/21 06:11:32;;;;;;;5.88;4.13;;;17.40;28.70;;;;;;5086663;28;45179;-65
2024/01/21 06:13:59;;;;;;;6.15;4.47;;;17.40;28.60;;;;;;5086385;28;45422;-65
2024/01/21 06:16:26;;;;;;;6.72;4.50;;;17.50;28.60;;;;;;5086302;28;45368;-64
2024/01/21 06:18:52;;;;;;;5.88;4.35;;;17.50;28.60;;;;;;5085506;27;45438;-65
2024/01/21 06:21:19;;;;;;;5.80;4.20;;;17.50;28.60;;;;;;5086510;28;45359;-64
2024/01/21 06:23:47;;;;;;;5.55;4.40;;;17.50;28.50;;;;;;5086190;28;45234;-65
2024/01/21 06:26:17;;;;;;;5.97;4.05;;;17.50;28.50;;;;;;5086385;28;45399;-65
2024/01/21 06:28:44;;;;;;;6.03;3.95;;;17.60;28.50;;;;;;5086243;28;45282;-65
2024/01/21 06:31:11;;;;;;;6.93;4.28;;;17.60;28.50;;;;;;5086162;28;45312;-64
2024/01/21 06:33:39;;;;;;;4.72;4.00;;;17.60;28.50;;;;;;5085882;28;45315;-64
2024/01/21 06:36:06;;;;;;;5.15;4.00;;;17.60;28.40;;;;;;5085686;28;45474;-65
2024/01/21 06:38:33;;;;;;;5.18;3.78;;;17.60;28.40;;;;;;5086150;28;45471;-65
2024/01/21 06:41:01;;;;;;;7.60;4.70;;;17.70;28.40;;;;;;5085808;28;45365;-65
2024/01/21 06:43:28;;;;;;;6.00;3.88;;;17.70;28.40;;;;;;5085773;28;46877;-65
2024/01/21 06:45:55;;;;;;;4.85;4.13;;;17.70;28.30;;;;;;5085831;28;45423;-65
2024/01/21 06:48:22;;;;;;;5.90;4.20;;;17.80;28.30;;;;;;5085742;28;45325;-65
2024/01/21 06:50:50;;;;;;;6.22;4.28;;;17.80;28.30;;;;;;5085711;28;45455;-65
2024/01/21 06:53:17;;;;;;;4.80;3.65;;;17.80;28.30;;;;;;5085543;28;47327;-65
2024/01/21 06:55:44;;;;;;;5.65;4.20;;;17.80;28.30;;;;;;5085758;28;45212;-66
2024/01/21 06:58:13;;;;;;;5.18;3.92;;;17.80;28.30;;;;;;5086075;28;45395;-65
2024/01/21 07:00:40;;;;;;;5.78;3.92;;;17.90;28.30;;;;;;5105953;27;45395;-65
2024/01/21 07:03:06;;;;;;;4.53;3.75;;;17.90;28.30;;;;;;5105902;27;46273;-66
2024/01/21 07:05:33;;;;;;;4.82;3.80;;;17.90;28.20;;;;;;5104227;27;45330;-65
2024/01/21 07:08:00;;;;;;;5.97;4.20;;;17.90;28.20;;;;;;5085551;28;45451;-65
2024/01/21 07:10:27;;;;;;;4.35;3.58;;;17.90;28.20;;;;;;5085745;28;45375;-65
2024/01/21 07:12:56;;;;;;;5.70;4.10;;;17.90;28.10;;;;;;5085530;28;46154;-65
2024/01/21 07:15:25;;;;;;;5.25;4.10;;;18.00;28.20;;;;;;5085686;28;45177;-66
2024/01/21 07:17:50;;;;;;;5.50;4.05;;;18.00;28.20;;;;;;5085899;28;45322;-65
2024/01/21 07:20:17;;;;;;;5.88;3.63;;;18.00;28.20;;;;;;5085833;28;45387;-65
2024/01/21 07:22:44;;;;;;;5.30;4.13;;;18.00;28.10;;;;;;5085649;28;45574;-65
2024/01/21 07:25:14;;;;;;;4.53;3.80;;;18.00;28.10;;;;;;5085208;28;45323;-65
2024/01/21 07:27:42;;;;;;;4.43;3.55;;;18.00;28.10;;;;;;5085755;28;45355;-65
2024/01/21 07:30:10;;;;;;;4.95;3.75;;;18.00;28.10;;;;;;5085498;28;45459;-65
2024/01/21 07:32:39;;;;;;;5.95;3.70;;;18.10;28.10;;;;;;5085384;28;46481;-65
2024/01/21 07:35:06;;;;;;;4.70;3.30;;;18.10;28.10;;;;;;5085432;28;45385;-65
2024/01/21 07:37:33;;;;;;;6.72;4.03;;;18.10;28.10;;;;;;5085315;28;45386;-65
2024/01/21 07:40:01;;;;;;;4.85;3.47;;;18.10;28.10;;;;;;5085068;28;45489;-65
2024/01/21 07:42:28;;;;;;;4.53;3.75;;;18.20;28.10;;;;;;5085383;28;45296;-65
2024/01/21 07:44:55;;;;;;;4.70;3.65;;;18.20;28.10;;;;;;5085153;28;45433;-65
2024/01/21 07:47:22;;;;;;;5.88;3.83;;;18.20;28.10;;;;;;5085283;28;45261;-65
2024/01/21 07:49:50;;;;;;;4.88;3.47;;;18.20;28.00;;;;;;5085088;28;45447;-65
2024/01/21 07:52:17;;;;;;;4.57;2.97;;;18.20;28.00;;;;;;5085046;28;46346;-66
2024/01/21 07:54:44;;;;;;;4.95;3.53;;;18.20;28.00;;;;;;5085379;28;45343;-66
2024/01/21 07:57:11;;;;;;;6.88;3.45;;;18.20;28.00;;;;;;5085104;28;45374;-66
2024/01/21 07:59:38;;;;;;;6.03;3.65;;;18.30;28.00;;;;;;5085352;28;45403;-66
2024/01/21 08:02:05;;;;;;;4.00;3.13;;;18.30;28.00;;;;;;5085073;28;45410;-66
2024/01/21 08:04:32;;;;;;;3.95;3.10;;;18.30;28.00;;;;;;5085070;28;45327;-65
2024/01/21 08:07:00;;;;;;;3.67;3.28;;;18.30;28.10;;;;;;5084995;28;45404;-66
2024/01/21 08:09:27;;;;;;;3.25;2.92;;;18.30;28.00;;;;;;5085193;28;45319;-66
2024/01/21 08:11:54;;;;;;;5.35;3.35;;;18.30;28.50;;;;;;5084830;28;46657;-66
2024/01/21 08:14:21;;;;;;;3.80;3.03;;;18.30;28.10;;;;;;5084879;28;45320;-66
2024/01/21 08:16:47;;;;;;;4.97;3.63;;;18.30;28.00;;;;;;5084761;28;45328;-65
2024/01/21 08:19:15;;;;;;;3.67;3.33;;;18.30;28.10;;;;;;5085146;28;45313;-66
2024/01/21 08:21:42;;;;;;;4.18;3.58;;;18.30;28.10;;;;;;5084475;28;46631;-66
2024/01/21 08:24:10;;;;;;;4.10;3.20;;;18.40;28.10;;;;;;5084770;28;45463;-66
2024/01/21 08:26:37;;;;;;;4.00;3.10;;;18.40;28.20;;;;;;5084733;28;45308;-66
2024/01/21 08:29:04;;;;;;;5.50;3.55;;;18.40;28.10;;;;;;5085191;28;45259;-66
2024/01/21 08:31:31;;;;;;;4.32;3.45;;;18.40;28.10;;;;;;5084395;28;45487;-66
2024/01/21 08:33:58;;;;;;;3.55;2.97;;;18.40;28.20;;;;;;5084628;28;45396;-65
2024/01/21 08:36:25;;;;;;;5.13;3.30;;;18.40;28.20;;;;;;5085001;28;45434;-66
2024/01/21 08:38:53;;;;;;;3.83;3.25;;;18.40;28.20;;;;;;5085022;28;45155;-66
2024/01/21 08:41:21;;;;;;;4.32;3.15;;;18.40;28.20;;;;;;5085151;27;46330;-66
2024/01/21 08:43:48;;;;;;;2.85;2.40;;;18.40;28.20;;;;;;5088010;28;45320;-66
2024/01/21 08:46:15;;;;;;;4.13;3.20;;;18.50;28.30;;;;;;5088394;28;45407;-66
2024/01/21 08:48:44;;;;;;;3.45;2.83;;;18.50;28.20;;;;;;5088081;28;45245;-65
2024/01/21 08:51:12;;;;;;;4.40;3.05;;;18.50;28.30;;;;;;5087627;28;45505;-66
2024/01/21 08:53:39;;;;;;;3.33;2.47;;;18.50;28.30;;;;;;5088073;28;45356;-65
2024/01/21 08:56:06;;;;;;;4.70;2.63;;;18.50;28.30;;;;;;5087936;28;45286;-66
2024/01/21 08:58:35;;;;;;;3.08;2.47;;;18.60;28.40;;;;;;5108308;27;45344;-65
2024/01/21 09:01:02;;;;;;;3.60;2.50;;;18.60;28.40;;;;;;5107904;27;46375;-66
2024/01/21 09:03:30;;;;;;;2.47;2.28;;;18.50;28.40;;;;;;5108161;27;45362;-66
2024/01/21 09:05:57;;;;;;;3.65;2.70;;;18.60;28.40;;;;;;5103465;27;45345;-66
2024/01/21 09:08:24;;;;;;;3.03;2.28;;;18.50;28.40;;;;;;5087892;28;45264;-66
2024/01/21 09:10:51;;;;;;;2.65;2.33;;;18.60;28.40;;;;;;5087302;28;46743;-66
2024/01/21 09:13:18;;;;;;;4.72;2.40;;;18.60;28.40;;;;;;5070514;28;45685;-63
2024/01/21 09:15:47;;;;;;;3.20;2.28;;;18.60;28.70;;;;;;5082113;27;45368;-63
2024/01/21 09:18:14;;;;;;;3.55;2.47;;;18.60;29.20;;;;;;5107705;27;45314;-63
2024/01/21 09:20:41;;;;;;;2.50;2.25;;;18.70;28.70;;;;;;5107545;27;46518;-67
2024/01/21 09:23:08;;;;;;;4.40;2.08;;;18.60;28.70;;;;;;5107467;27;45402;-64
2024/01/21 09:25:34;;;;;;;2.80;2.22;;;18.70;28.80;;;;;;5107879;27;45323;-63
2024/01/21 09:28:01;;;;;;;2.85;2.28;;;18.70;28.80;;;;;;5107955;27;45543;-63
2024/01/21 09:30:28;;;;;;;6.80;2.30;;;18.70;28.80;;;;;;5107292;27;46326;-65
2024/01/21 09:32:56;;;;;;;4.78;2.22;;;18.70;29.90;;;;;;5107643;27;45281;-66
2024/01/21 09:35:23;;;;;;;3.55;1.88;;;18.70;31.00;;;;;;5107483;27;45554;-65
2024/01/21 09:37:50;;;;;;;5.10;2.17;;;18.80;30.20;;;;;;5107724;27;45436;-69
2024/01/21 09:40:17;;;;;;;5.13;2.03;;;18.80;31.30;;;;;;5107676;27;46710;-67
2024/01/21 09:42:44;;;;;;;2.78;1.98;;;19.00;30.10;;;;;;5094300;27;45523;-63
2024/01/21 09:45:11;;;;;;;2.75;2.00;;;19.10;30.80;;;;;;5086296;28;45518;-64
2024/01/21 09:47:38;;;;;;;8.13;2.42;;;19.20;32.20;;;;;;5087016;28;45485;-61
2024/01/21 09:50:07;;;;;;;4.68;1.90;;;19.30;31.00;;;;;;5086401;28;47770;-64
2024/01/21 09:52:34;;;;;;;4.70;2.40;;;19.50;32.60;;;;;;5086561;27;45579;-68
2024/01/21 09:55:01;;;;;;;9.40;2.30;;;19.60;31.30;;;;;;5088427;27;45482;-63
2024/01/21 09:57:29;;;;;;;8.02;1.95;;;19.50;30.00;;;;;;5102039;27;45418;-63
2024/01/21 09:59:55;;;;;;;2.50;1.95;;;19.50;30.00;;;;;;5086018;27;46326;-64
2024/01/21 10:02:22;;;;;;;3.67;1.70;;;19.40;29.80;;;;;;5084036;27;45453;-63
2024/01/21 10:04:49;;;;;;;5.82;2.00;;;19.40;29.60;;;;;;5086405;27;45335;-62
2024/01/21 10:07:18;;;;;;;5.68;1.98;;;19.30;30.00;;;;;;5088932;27;45536;-66
2024/01/21 10:09:45;;;;;;;4.57;1.70;;;19.20;30.30;;;;;;5085857;27;46339;-65
2024/01/21 10:12:12;;;;;;;4.68;1.80;;;19.10;30.20;;;;;;5072724;28;45967;-65
2024/01/21 10:14:41;;;;;;;1.63;1.50;;;19.10;30.30;;;;;;5085137;27;45320;-65
2024/01/21 10:17:08;;;;;;;7.45;2.10;;;19.00;30.30;;;;;;5077570;27;45451;-64
2024/01/21 10:19:35;;;;;;;3.00;1.70;;;19.00;30.40;;;;;;5090681;27;47303;-65
2024/01/21 10:22:09;;;;;;;3.80;1.70;;;19.00;30.50;;;;;;5091239;27;45436;-64
2024/01/21 10:24:39;;;;;;;11.88;2.08;;;19.00;30.90;;;;;;5105498;27;45388;-65
2024/01/21 10:27:06;;;;;;;7.88;1.58;;;19.10;31.70;;;;;;5099076;27;45519;-64
2024/01/21 10:29:35;;;;;;;5.65;1.92;;;19.10;31.20;;;;;;5103272;27;46656;-65
2024/01/21 10:32:01;;;;;;;6.55;2.08;;;19.20;31.70;;;;;;5086919;27;45285;-66
2024/01/21 10:34:28;;;;;;;4.45;1.48;;;19.20;31.40;;;;;;5097050;27;45385;-62
2024/01/21 10:36:55;;;;;;;3.60;1.60;;;19.30;31.00;;;;;;5091930;27;45404;-67
2024/01/21 10:39:24;;;;;;;5.25;1.80;;;19.20;30.40;;;;;;5095966;27;45374;-64
2024/01/21 10:41:52;;;;;;;4.72;1.95;;;19.30;30.70;;;;;;5085758;28;45450;-65
2024/01/21 10:44:19;;;;;;;5.15;1.70;;;19.30;31.20;;;;;;5085295;28;45308;-65
2024/01/21 10:46:46;;;;;;;6.47;2.17;;;19.40;31.40;;;;;;5094055;27;45499;-65
2024/01/21 10:49:13;;;;;;;9.88;2.38;;;19.50;30.60;;;;;;5085612;28;45529;-66
2024/01/21 10:51:40;;;;;;;6.10;2.17;;;19.60;30.20;;;;;;5082933;27;45694;-66
2024/01/21 10:54:06;;;;;;;5.88;2.10;;;19.60;31.00;;;;;;5097279;27;45384;-67
2024/01/21 10:56:33;;;;;;;5.93;2.15;;;19.70;31.10;;;;;;5090877;27;45356;-70
2024/01/21 10:59:02;;;;;;;6.40;1.95;;;19.70;30.30;;;;;;5085687;28;47261;-67
2024/01/21 11:01:29;;;;;;;5.60;2.13;;;19.80;31.20;;;;;;5081283;28;45463;-67
2024/01/21 11:04:04;;;;;;;5.32;1.77;;;19.80;31.40;;;;;;5083643;27;45484;-63
2024/01/21 11:06:32;;;;;;;5.07;1.80;;;19.80;31.00;;;;;;5083302;28;45941;-64
2024/01/21 11:08:59;;;;;;;4.75;1.80;;;19.80;30.70;;;;;;5083906;28;46360;-63
2024/01/21 11:11:26;;;;;;;6.75;2.08;;;19.60;30.10;;;;;;5085358;27;45416;-63
2024/01/21 11:13:54;;;;;;;9.25;2.47;;;19.60;30.00;;;;;;5084388;28;45358;-62
2024/01/21 11:16:37;;;;;;;4.60;2.10;;;19.60;30.00;;;;;;5084738;27;45409;-68
2024/01/21 11:19:06;;;;;;;3.88;2.42;;;19.70;31.10;;;;;;5092618;27;45482;-63
2024/01/21 11:21:34;;;;;;;6.35;2.28;;;19.80;29.90;;;;;;5087540;27;45422;-66
2024/01/21 11:24:03;;;;;;;6.50;2.17;;;19.90;29.90;;;;;;5096054;27;45286;-63
2024/01/21 11:26:30;;;;;;;2.55;2.08;;;20.00;30.40;;;;;;5085919;27;45525;-67
2024/01/21 11:28:58;;;;;;;2.80;2.30;;;20.10;30.30;;;;;;5094529;27;47517;-66
2024/01/21 11:31:26;;;;;;;4.95;2.03;;;20.40;30.30;;;;;;5084655;28;45273;-66
2024/01/21 11:34:05;;;;;;;4.55;2.10;;;20.60;29.90;;;;;;5085263;28;45351;-63
2024/01/21 11:36:32;;;;;;;3.53;1.83;;;20.70;30.90;;;;;;5089356;27;45566;-64
2024/01/21 11:38:59;;;;;;;3.15;1.73;;;20.80;30.30;;;;;;5077554;28;46589;-63
2024/01/21 11:41:32;;;;;;;2.28;1.48;;;20.90;31.20;;;;;;5080034;28;45302;-63
2024/01/21 11:44:05;;;;;;;2.20;1.75;;;21.10;31.20;;;;;;5080529;28;45416;-64
2024/01/21 11:46:32;;;;;;;4.63;1.83;;;21.30;30.30;;;;;;5079861;28;45382;-66
2024/01/21 11:48:59;;;;;;;6.70;1.52;;;21.40;30.00;;;;;;5084868;28;47284;-65
2024/01/21 11:51:27;;;;;;;5.22;1.83;;;21.50;29.60;;;;;;5066561;28;46505;-65
2024/01/21 11:53:54;;;;;;;7.18;1.95;;;21.70;29.60;;;;;;5084200;27;45569;-66
2024/01/21 11:56:21;;;;;;;6.18;1.67;;;21.70;29.40;;;;;;5089681;27;45526;-65
2024/01/21 11:58:48;;;;;;;7.18;1.88;;;21.70;29.20;;;;;;5088733;27;47292;-66
2024/01/21 12:01:15;;;;;;;10.55;2.05;;;21.60;29.30;;;;;;5087336;27;45418;-64
2024/01/21 12:03:42;;;;;;;4.78;1.50;;;21.60;29.50;;;;;;5078263;28;45406;-64
2024/01/21 12:06:09;;;;;;;2.38;1.60;;;21.60;29.50;;;;;;5083623;27;45425;-66
2024/01/21 12:08:41;;;;;;;5.65;3.08;;;21.50;29.30;;;;;;5087917;27;46372;-66
2024/01/21 12:11:08;;;;;;;4.13;1.40;;;21.50;29.50;;;;;;5086368;27;45494;-69
2024/01/21 12:13:36;;;;;;;7.07;1.73;;;21.50;29.40;;;;;;5086972;27;45580;-68
2024/01/21 12:16:03;;;;;;;9.75;2.05;;;21.40;29.30;;;;;;5080973;27;45547;-64
2024/01/21 12:18:30;;;;;;;4.82;1.65;;;21.50;29.80;;;;;;5086512;27;46349;-67
2024/01/21 12:20:56;;;;;;;13.77;2.35;;;21.50;30.00;;;;;;5088939;27;45374;-66
2024/01/21 12:23:23;;;;;;;6.90;2.08;;;21.60;29.40;;;;;;5090019;27;45369;-66
2024/01/21 12:25:51;;;;;;;4.63;1.67;;;21.60;29.60;;;;;;5089864;27;45527;-64
2024/01/21 12:28:18;;;;;;;5.68;1.80;;;21.60;29.60;;;;;;5086749;28;45377;-67
2024/01/21 12:30:47;;;;;;;9.95;2.22;;;21.60;29.60;;;;;;5091399;27;45336;-71
2024/01/21 12:33:14;;;;;;;7.10;1.80;;;21.60;30.00;;;;;;5087612;28;45498;-66
2024/01/21 12:35:41;;;;;;;10.10;1.75;;;21.70;29.80;;;;;;5086346;28;45525;-66
2024/01/21 12:38:08;;;;;;;8.27;1.77;;;21.70;29.90;;;;;;5079799;28;45592;-62
2024/01/21 12:40:35;;;;;;;3.88;1.70;;;21.80;29.70;;;;;;5091734;27;45398;-63
2024/01/21 12:43:03;;;;;;;7.63;2.33;;;21.80;29.60;;;;;;5098317;27;45282;-68
2024/01/21 12:45:30;;;;;;;5.53;1.27;;;21.70;28.60;;;;;;5097034;27;45275;-68